sensor_id;sensor_type;location;lat;lon;timestamp;P1;durP1;ratioP1;P2;durP2;ratioP2
37973;SDS011;23796;51.458;7.000;2022-11-20T00:01:06;20.48;;;14.20;;
37973;SDS011;23796;51.458;7.000;2022-11-20T00:03:33;18.17;;;13.05;;
37973;SDS011;23796;51.458;7.000;2022-11-20T00:05:59;19.52;;;14.43;;
37973;SDS011;23796;51.458;7.000;2022-11-20T00:08:26;21.70;;;13.82;;
37973;SDS011;23796;51.458;7.000;2022-11-20T00:10:54;17.33;;;13.30;;
37973;SDS011;23796;51.458;7.000;2022-11-20T00:13:19;20.75;;;14.32;;
37973;SDS011;23796;51.458;7.000;2022-11-20T00:15:45;18.60;;;14.13;;
37973;SDS011;23796;51.458;7.000;2022-11-20T00:18:13;19.35;;;14.02;;
37973;SDS011;23796;51.458;7.000;2022-11-20T00:20:41;21.65;;;14.40;;
37973;SDS011;23796;51.458;7.000;2022-11-20T00:23:06;22.00;;;15.43;;
37973;SDS011;23796;51.458;7.000;2022-11-20T00:25:33;18.67;;;14.07;;
37973;SDS011;23796;51.458;7.000;2022-11-20T00:28:00;22.45;;;14.95;;
37973;SDS011;23796;51.458;7.000;2022-11-20T00:30:26;19.58;;;15.35;;
37973;SDS011;23796;51.458;7.000;2022-11-20T00:32:52;19.65;;;14.20;;
37973;SDS011;23796;51.458;7.000;2022-11-20T00:35:20;23.35;;;14.75;;
37973;SDS011;23796;51.458;7.000;2022-11-20T00:37:48;21.95;;;14.75;;
37973;SDS011;23796;51.458;7.000;2022-11-20T00:40:16;20.67;;;14.43;;
37973;SDS011;23796;51.458;7.000;2022-11-20T00:42:42;19.02;;;13.75;;
37973;SDS011;23796;51.458;7.000;2022-11-20T00:45:07;20.80;;;14.73;;
37973;SDS011;23796;51.458;7.000;2022-11-20T00:47:35;20.58;;;14.80;;
37973;SDS011;23796;51.458;7.000;2022-11-20T00:50:04;20.42;;;14.52;;
37973;SDS011;23796;51.458;7.000;2022-11-20T00:52:32;20.92;;;15.80;;
37973;SDS011;23796;51.458;7.000;2022-11-20T00:55:00;22.55;;;16.00;;
37973;SDS011;23796;51.458;7.000;2022-11-20T00:57:26;20.15;;;14.90;;
37973;SDS011;23796;51.458;7.000;2022-11-20T00:59:52;19.23;;;14.80;;
37973;SDS011;23796;51.458;7.000;2022-11-20T01:02:19;21.05;;;14.90;;
37973;SDS011;23796;51.458;7.000;2022-11-20T01:04:45;21.00;;;15.18;;
37973;SDS011;23796;51.458;7.000;2022-11-20T01:07:13;20.77;;;14.50;;
37973;SDS011;23796;51.458;7.000;2022-11-20T01:09:38;19.98;;;15.10;;
37973;SDS011;23796;51.458;7.000;2022-11-20T01:12:06;16.98;;;13.43;;
37973;SDS011;23796;51.458;7.000;2022-11-20T01:14:32;20.30;;;13.93;;
37973;SDS011;23796;51.458;7.000;2022-11-20T01:16:57;19.13;;;14.68;;
37973;SDS011;23796;51.458;7.000;2022-11-20T01:19:23;19.17;;;14.02;;
37973;SDS011;23796;51.458;7.000;2022-11-20T01:21:52;19.95;;;14.02;;
37973;SDS011;23796;51.458;7.000;2022-11-20T01:24:19;18.75;;;14.40;;
37973;SDS011;23796;51.458;7.000;2022-11-20T01:26:47;20.60;;;15.45;;
37973;SDS011;23796;51.458;7.000;2022-11-20T01:29:18;20.30;;;14.77;;
37973;SDS011;23796;51.458;7.000;2022-11-20T01:31:45;22.63;;;16.20;;
37973;SDS011;23796;51.458;7.000;2022-11-20T01:34:13;21.98;;;14.27;;
37973;SDS011;23796;51.458;7.000;2022-11-20T01:36:41;19.30;;;14.52;;
37973;SDS011;23796;51.458;7.000;2022-11-20T01:39:18;22.73;;;15.57;;
37973;SDS011;23796;51.458;7.000;2022-11-20T01:41:46;20.05;;;15.07;;
37973;SDS011;23796;51.458;7.000;2022-11-20T01:47:21;19.38;;;14.35;;
37973;SDS011;23796;51.458;7.000;2022-11-20T01:49:55;19.05;;;14.15;;
37973;SDS011;23796;51.458;7.000;2022-11-20T01:52:36;21.13;;;14.45;;
37973;SDS011;23796;51.458;7.000;2022-11-20T01:55:09;20.08;;;14.65;;
37973;SDS011;23796;51.458;7.000;2022-11-20T01:57:42;20.40;;;14.63;;
37973;SDS011;23796;51.458;7.000;2022-11-20T02:00:11;19.95;;;14.32;;
37973;SDS011;23796;51.458;7.000;2022-11-20T02:02:40;21.52;;;15.73;;
37973;SDS011;23796;51.458;7.000;2022-11-20T02:05:14;20.33;;;15.48;;
37973;SDS011;23796;51.458;7.000;2022-11-20T02:07:44;21.48;;;15.13;;
37973;SDS011;23796;51.458;7.000;2022-11-20T02:10:12;19.63;;;15.85;;
37973;SDS011;23796;51.458;7.000;2022-11-20T02:12:39;23.17;;;15.75;;
37973;SDS011;23796;51.458;7.000;2022-11-20T02:15:23;21.40;;;15.70;;
37973;SDS011;23796;51.458;7.000;2022-11-20T02:17:50;21.05;;;15.45;;
37973;SDS011;23796;51.458;7.000;2022-11-20T02:20:16;20.50;;;15.02;;
37973;SDS011;23796;51.458;7.000;2022-11-20T02:22:54;23.17;;;15.75;;
37973;SDS011;23796;51.458;7.000;2022-11-20T02:25:24;20.92;;;14.43;;
37973;SDS011;23796;51.458;7.000;2022-11-20T02:27:52;18.85;;;14.88;;
37973;SDS011;23796;51.458;7.000;2022-11-20T02:30:18;19.55;;;14.23;;
37973;SDS011;23796;51.458;7.000;2022-11-20T02:32:44;21.48;;;15.30;;
37973;SDS011;23796;51.458;7.000;2022-11-20T02:37:43;20.45;;;14.52;;
37973;SDS011;23796;51.458;7.000;2022-11-20T02:40:10;20.17;;;15.10;;
37973;SDS011;23796;51.458;7.000;2022-11-20T02:42:36;19.65;;;15.05;;
37973;SDS011;23796;51.458;7.000;2022-11-20T02:45:05;18.58;;;13.85;;
37973;SDS011;23796;51.458;7.000;2022-11-20T02:47:31;17.52;;;13.32;;
37973;SDS011;23796;51.458;7.000;2022-11-20T02:49:57;19.13;;;14.38;;
37973;SDS011;23796;51.458;7.000;2022-11-20T02:52:23;18.45;;;14.48;;
37973;SDS011;23796;51.458;7.000;2022-11-20T02:54:51;20.50;;;14.32;;
37973;SDS011;23796;51.458;7.000;2022-11-20T02:57:17;20.75;;;13.88;;
37973;SDS011;23796;51.458;7.000;2022-11-20T02:59:42;18.90;;;15.10;;
37973;SDS011;23796;51.458;7.000;2022-11-20T03:02:08;18.65;;;13.80;;
37973;SDS011;23796;51.458;7.000;2022-11-20T03:04:33;17.15;;;13.82;;
37973;SDS011;23796;51.458;7.000;2022-11-20T03:06:59;19.15;;;14.48;;
37973;SDS011;23796;51.458;7.000;2022-11-20T03:09:25;17.23;;;13.57;;
37973;SDS011;23796;51.458;7.000;2022-11-20T03:11:50;20.38;;;14.10;;
37973;SDS011;23796;51.458;7.000;2022-11-20T03:14:18;19.17;;;14.20;;
37973;SDS011;23796;51.458;7.000;2022-11-20T03:16:46;21.40;;;13.50;;
37973;SDS011;23796;51.458;7.000;2022-11-20T03:19:12;17.85;;;13.80;;
37973;SDS011;23796;51.458;7.000;2022-11-20T03:21:38;21.15;;;14.25;;
37973;SDS011;23796;51.458;7.000;2022-11-20T03:24:04;19.45;;;13.63;;
37973;SDS011;23796;51.458;7.000;2022-11-20T03:26:30;17.35;;;13.13;;
37973;SDS011;23796;51.458;7.000;2022-11-20T03:28:59;18.48;;;14.43;;
37973;SDS011;23796;51.458;7.000;2022-11-20T03:31:29;17.23;;;13.82;;
37973;SDS011;23796;51.458;7.000;2022-11-20T03:33:57;17.05;;;13.20;;
37973;SDS011;23796;51.458;7.000;2022-11-20T03:36:24;17.25;;;12.98;;
37973;SDS011;23796;51.458;7.000;2022-11-20T03:38:50;17.92;;;13.90;;
37973;SDS011;23796;51.458;7.000;2022-11-20T03:41:21;19.15;;;13.88;;
37973;SDS011;23796;51.458;7.000;2022-11-20T03:43:56;19.40;;;13.50;;
37973;SDS011;23796;51.458;7.000;2022-11-20T03:46:24;16.77;;;12.43;;
37973;SDS011;23796;51.458;7.000;2022-11-20T03:48:50;16.15;;;12.85;;
37973;SDS011;23796;51.458;7.000;2022-11-20T03:51:19;18.42;;;12.88;;
37973;SDS011;23796;51.458;7.000;2022-11-20T03:53:51;21.25;;;13.82;;
37973;SDS011;23796;51.458;7.000;2022-11-20T03:56:19;18.13;;;13.43;;
37973;SDS011;23796;51.458;7.000;2022-11-20T03:58:47;17.77;;;14.00;;
37973;SDS011;23796;51.458;7.000;2022-11-20T04:01:14;17.95;;;13.90;;
37973;SDS011;23796;51.458;7.000;2022-11-20T04:03:41;18.67;;;13.18;;
37973;SDS011;23796;51.458;7.000;2022-11-20T04:06:11;15.63;;;12.95;;
37973;SDS011;23796;51.458;7.000;2022-11-20T04:08:43;19.15;;;12.88;;
37973;SDS011;23796;51.458;7.000;2022-11-20T04:13:37;19.35;;;14.93;;
37973;SDS011;23796;51.458;7.000;2022-11-20T04:16:04;17.67;;;13.18;;
37973;SDS011;23796;51.458;7.000;2022-11-20T04:18:31;16.77;;;13.40;;
37973;SDS011;23796;51.458;7.000;2022-11-20T04:20:57;18.98;;;13.48;;
37973;SDS011;23796;51.458;7.000;2022-11-20T04:23:23;21.75;;;14.20;;
37973;SDS011;23796;51.458;7.000;2022-11-20T04:25:49;16.67;;;12.65;;
37973;SDS011;23796;51.458;7.000;2022-11-20T04:28:17;18.48;;;13.70;;
37973;SDS011;23796;51.458;7.000;2022-11-20T04:30:46;17.00;;;13.10;;
37973;SDS011;23796;51.458;7.000;2022-11-20T04:33:11;22.08;;;15.55;;
37973;SDS011;23796;51.458;7.000;2022-11-20T04:35:37;21.98;;;14.57;;
37973;SDS011;23796;51.458;7.000;2022-11-20T04:38:03;19.60;;;14.98;;
37973;SDS011;23796;51.458;7.000;2022-11-20T04:40:29;21.80;;;14.35;;
37973;SDS011;23796;51.458;7.000;2022-11-20T04:42:55;18.38;;;14.45;;
37973;SDS011;23796;51.458;7.000;2022-11-20T04:45:23;22.52;;;16.23;;
37973;SDS011;23796;51.458;7.000;2022-11-20T04:47:51;23.55;;;15.38;;
37973;SDS011;23796;51.458;7.000;2022-11-20T04:50:16;18.20;;;13.80;;
37973;SDS011;23796;51.458;7.000;2022-11-20T04:52:42;20.75;;;14.32;;
37973;SDS011;23796;51.458;7.000;2022-11-20T04:55:07;18.95;;;14.23;;
37973;SDS011;23796;51.458;7.000;2022-11-20T04:57:37;19.50;;;14.25;;
37973;SDS011;23796;51.458;7.000;2022-11-20T05:00:03;20.80;;;14.52;;
37973;SDS011;23796;51.458;7.000;2022-11-20T05:02:30;17.45;;;14.00;;
37973;SDS011;23796;51.458;7.000;2022-11-20T05:04:58;19.48;;;13.90;;
37973;SDS011;23796;51.458;7.000;2022-11-20T05:07:24;17.65;;;13.77;;
37973;SDS011;23796;51.458;7.000;2022-11-20T05:09:51;18.58;;;13.32;;
37973;SDS011;23796;51.458;7.000;2022-11-20T05:12:17;20.30;;;14.50;;
37973;SDS011;23796;51.458;7.000;2022-11-20T05:14:43;17.23;;;13.05;;
37973;SDS011;23796;51.458;7.000;2022-11-20T05:17:11;16.60;;;13.48;;
37973;SDS011;23796;51.458;7.000;2022-11-20T05:19:37;18.42;;;13.57;;
37973;SDS011;23796;51.458;7.000;2022-11-20T05:22:05;20.20;;;13.57;;
37973;SDS011;23796;51.458;7.000;2022-11-20T05:24:30;19.30;;;14.20;;
37973;SDS011;23796;51.458;7.000;2022-11-20T05:26:58;23.23;;;13.55;;
37973;SDS011;23796;51.458;7.000;2022-11-20T05:29:26;17.38;;;13.32;;
37973;SDS011;23796;51.458;7.000;2022-11-20T05:31:52;18.50;;;13.60;;
37973;SDS011;23796;51.458;7.000;2022-11-20T05:34:17;15.52;;;12.68;;
37973;SDS011;23796;51.458;7.000;2022-11-20T05:36:43;15.45;;;12.13;;
37973;SDS011;23796;51.458;7.000;2022-11-20T05:39:11;17.75;;;13.02;;
37973;SDS011;23796;51.458;7.000;2022-11-20T05:41:36;18.05;;;14.43;;
37973;SDS011;23796;51.458;7.000;2022-11-20T05:44:04;16.58;;;12.90;;
37973;SDS011;23796;51.458;7.000;2022-11-20T05:46:32;17.98;;;13.73;;
37973;SDS011;23796;51.458;7.000;2022-11-20T05:49:00;17.90;;;12.93;;
37973;SDS011;23796;51.458;7.000;2022-11-20T05:51:26;21.15;;;14.73;;
37973;SDS011;23796;51.458;7.000;2022-11-20T05:53:54;19.90;;;13.73;;
37973;SDS011;23796;51.458;7.000;2022-11-20T05:56:21;19.08;;;14.32;;
37973;SDS011;23796;51.458;7.000;2022-11-20T05:58:49;17.60;;;12.90;;
37973;SDS011;23796;51.458;7.000;2022-11-20T06:01:25;17.90;;;13.52;;
37973;SDS011;23796;51.458;7.000;2022-11-20T06:03:57;19.20;;;14.43;;
37973;SDS011;23796;51.458;7.000;2022-11-20T06:06:23;19.92;;;12.38;;
37973;SDS011;23796;51.458;7.000;2022-11-20T06:08:50;15.38;;;12.35;;
37973;SDS011;23796;51.458;7.000;2022-11-20T06:11:16;17.05;;;13.60;;
37973;SDS011;23796;51.458;7.000;2022-11-20T06:13:43;18.85;;;13.57;;
37973;SDS011;23796;51.458;7.000;2022-11-20T06:16:09;15.88;;;12.73;;
37973;SDS011;23796;51.458;7.000;2022-11-20T06:18:39;15.95;;;12.68;;
37973;SDS011;23796;51.458;7.000;2022-11-20T06:21:12;15.70;;;12.25;;
37973;SDS011;23796;51.458;7.000;2022-11-20T06:23:39;16.50;;;12.75;;
37973;SDS011;23796;51.458;7.000;2022-11-20T06:26:06;16.95;;;12.88;;
37973;SDS011;23796;51.458;7.000;2022-11-20T06:28:34;16.98;;;12.95;;
37973;SDS011;23796;51.458;7.000;2022-11-20T06:31:00;16.95;;;13.10;;
37973;SDS011;23796;51.458;7.000;2022-11-20T06:33:26;18.10;;;14.63;;
37973;SDS011;23796;51.458;7.000;2022-11-20T06:35:52;18.10;;;14.63;;
37973;SDS011;23796;51.458;7.000;2022-11-20T06:38:21;20.42;;;13.68;;
37973;SDS011;23796;51.458;7.000;2022-11-20T06:40:48;14.95;;;12.27;;
37973;SDS011;23796;51.458;7.000;2022-11-20T06:43:14;18.13;;;13.52;;
37973;SDS011;23796;51.458;7.000;2022-11-20T06:45:40;17.92;;;13.27;;
37973;SDS011;23796;51.458;7.000;2022-11-20T06:48:05;17.83;;;13.13;;
37973;SDS011;23796;51.458;7.000;2022-11-20T06:50:34;17.92;;;13.38;;
37973;SDS011;23796;51.458;7.000;2022-11-20T06:53:09;16.27;;;13.23;;
37973;SDS011;23796;51.458;7.000;2022-11-20T06:55:34;18.33;;;12.85;;
37973;SDS011;23796;51.458;7.000;2022-11-20T06:58:00;16.38;;;12.40;;
37973;SDS011;23796;51.458;7.000;2022-11-20T07:00:25;14.88;;;12.55;;
37973;SDS011;23796;51.458;7.000;2022-11-20T07:02:51;18.30;;;14.27;;
37973;SDS011;23796;51.458;7.000;2022-11-20T07:05:20;17.77;;;13.98;;
37973;SDS011;23796;51.458;7.000;2022-11-20T07:07:45;20.30;;;13.55;;
37973;SDS011;23796;51.458;7.000;2022-11-20T07:10:11;19.27;;;15.05;;
37973;SDS011;23796;51.458;7.000;2022-11-20T07:12:37;19.92;;;13.43;;
37973;SDS011;23796;51.458;7.000;2022-11-20T07:15:02;17.60;;;13.10;;
37973;SDS011;23796;51.458;7.000;2022-11-20T07:17:28;18.55;;;14.50;;
37973;SDS011;23796;51.458;7.000;2022-11-20T07:19:54;17.40;;;13.45;;
37973;SDS011;23796;51.458;7.000;2022-11-20T07:22:19;19.10;;;13.65;;
37973;SDS011;23796;51.458;7.000;2022-11-20T07:24:46;17.95;;;13.32;;
37973;SDS011;23796;51.458;7.000;2022-11-20T07:27:14;19.20;;;14.85;;
37973;SDS011;23796;51.458;7.000;2022-11-20T07:29:40;18.52;;;14.10;;
37973;SDS011;23796;51.458;7.000;2022-11-20T07:32:07;20.23;;;14.88;;
37973;SDS011;23796;51.458;7.000;2022-11-20T07:34:33;18.38;;;13.77;;
37973;SDS011;23796;51.458;7.000;2022-11-20T07:36:59;17.60;;;13.43;;
37973;SDS011;23796;51.458;7.000;2022-11-20T07:39:29;18.52;;;13.75;;
37973;SDS011;23796;51.458;7.000;2022-11-20T07:41:59;19.15;;;14.05;;
37973;SDS011;23796;51.458;7.000;2022-11-20T07:44:24;18.33;;;13.80;;
37973;SDS011;23796;51.458;7.000;2022-11-20T07:46:50;18.20;;;14.60;;
37973;SDS011;23796;51.458;7.000;2022-11-20T07:49:15;19.17;;;14.30;;
37973;SDS011;23796;51.458;7.000;2022-11-20T07:51:41;17.27;;;13.73;;
37973;SDS011;23796;51.458;7.000;2022-11-20T07:54:07;19.30;;;14.75;;
37973;SDS011;23796;51.458;7.000;2022-11-20T07:56:34;17.85;;;13.13;;
37973;SDS011;23796;51.458;7.000;2022-11-20T07:59:00;15.85;;;13.10;;
37973;SDS011;23796;51.458;7.000;2022-11-20T08:01:26;19.35;;;13.85;;
37973;SDS011;23796;51.458;7.000;2022-11-20T08:03:51;17.88;;;13.55;;
37973;SDS011;23796;51.458;7.000;2022-11-20T08:06:21;20.17;;;14.40;;
37973;SDS011;23796;51.458;7.000;2022-11-20T08:08:49;19.25;;;15.10;;
37973;SDS011;23796;51.458;7.000;2022-11-20T08:11:17;19.25;;;14.07;;
37973;SDS011;23796;51.458;7.000;2022-11-20T08:14:02;16.77;;;12.52;;
37973;SDS011;23796;51.458;7.000;2022-11-20T08:16:48;18.23;;;13.13;;
37973;SDS011;23796;51.458;7.000;2022-11-20T08:19:16;19.10;;;13.95;;
37973;SDS011;23796;51.458;7.000;2022-11-20T08:21:45;18.38;;;13.80;;
37973;SDS011;23796;51.458;7.000;2022-11-20T08:24:12;20.33;;;15.07;;
37973;SDS011;23796;51.458;7.000;2022-11-20T08:26:43;17.73;;;14.13;;
37973;SDS011;23796;51.458;7.000;2022-11-20T08:29:08;21.33;;;14.30;;
37973;SDS011;23796;51.458;7.000;2022-11-20T08:31:34;18.75;;;14.63;;
37973;SDS011;23796;51.458;7.000;2022-11-20T08:34:02;19.10;;;14.80;;
37973;SDS011;23796;51.458;7.000;2022-11-20T08:36:28;19.60;;;14.32;;
37973;SDS011;23796;51.458;7.000;2022-11-20T08:38:54;19.58;;;16.23;;
37973;SDS011;23796;51.458;7.000;2022-11-20T08:41:22;17.52;;;15.05;;
37973;SDS011;23796;51.458;7.000;2022-11-20T08:43:48;21.30;;;15.02;;
37973;SDS011;23796;51.458;7.000;2022-11-20T08:46:18;20.02;;;15.02;;
37973;SDS011;23796;51.458;7.000;2022-11-20T08:48:44;18.85;;;14.60;;
37973;SDS011;23796;51.458;7.000;2022-11-20T08:51:15;22.92;;;15.23;;
37973;SDS011;23796;51.458;7.000;2022-11-20T08:53:41;24.23;;;18.92;;
37973;SDS011;23796;51.458;7.000;2022-11-20T08:56:07;19.05;;;14.75;;
37973;SDS011;23796;51.458;7.000;2022-11-20T08:58:34;19.20;;;14.25;;
37973;SDS011;23796;51.458;7.000;2022-11-20T09:01:00;18.20;;;15.23;;
37973;SDS011;23796;51.458;7.000;2022-11-20T09:03:26;18.52;;;15.18;;
37973;SDS011;23796;51.458;7.000;2022-11-20T09:06:02;19.08;;;14.70;;
37973;SDS011;23796;51.458;7.000;2022-11-20T09:08:31;16.05;;;12.05;;
37973;SDS011;23796;51.458;7.000;2022-11-20T09:10:58;17.02;;;12.95;;
37973;SDS011;23796;51.458;7.000;2022-11-20T09:13:24;12.57;;;9.85;;
37973;SDS011;23796;51.458;7.000;2022-11-20T09:15:54;17.25;;;11.00;;
37973;SDS011;23796;51.458;7.000;2022-11-20T09:18:20;14.82;;;11.02;;
37973;SDS011;23796;51.458;7.000;2022-11-20T09:20:50;14.93;;;10.73;;
37973;SDS011;23796;51.458;7.000;2022-11-20T09:23:18;13.48;;;10.45;;
37973;SDS011;23796;51.458;7.000;2022-11-20T09:25:46;14.05;;;10.15;;
37973;SDS011;23796;51.458;7.000;2022-11-20T09:28:12;13.73;;;9.65;;
37973;SDS011;23796;51.458;7.000;2022-11-20T09:30:38;13.48;;;9.85;;
37973;SDS011;23796;51.458;7.000;2022-11-20T09:33:04;12.65;;;9.80;;
37973;SDS011;23796;51.458;7.000;2022-11-20T09:35:31;11.88;;;9.15;;
37973;SDS011;23796;51.458;7.000;2022-11-20T09:37:57;13.35;;;9.85;;
37973;SDS011;23796;51.458;7.000;2022-11-20T09:40:28;12.52;;;9.45;;
37973;SDS011;23796;51.458;7.000;2022-11-20T09:56:11;10.43;;;8.25;;
37973;SDS011;23796;51.458;7.000;2022-11-20T09:58:39;10.98;;;8.75;;
37973;SDS011;23796;51.458;7.000;2022-11-20T10:01:33;11.10;;;8.80;;
37973;SDS011;23796;51.458;7.000;2022-11-20T10:04:03;12.43;;;9.35;;
37973;SDS011;23796;51.458;7.000;2022-11-20T10:07:19;10.70;;;8.57;;
37973;SDS011;23796;51.458;7.000;2022-11-20T10:09:53;11.07;;;9.00;;
37973;SDS011;23796;51.458;7.000;2022-11-20T10:20:29;12.77;;;10.40;;
37973;SDS011;23796;51.458;7.000;2022-11-20T10:31:08;9.48;;;7.35;;
37973;SDS011;23796;51.458;7.000;2022-11-20T10:34:46;11.60;;;8.20;;
37973;SDS011;23796;51.458;7.000;2022-11-20T10:37:00;10.40;;;7.75;;
37973;SDS011;23796;51.458;7.000;2022-11-20T10:39:35;9.05;;;7.25;;
37973;SDS011;23796;51.458;7.000;2022-11-20T10:42:15;9.77;;;7.15;;
37973;SDS011;23796;51.458;7.000;2022-11-20T10:47:27;9.85;;;7.78;;
37973;SDS011;23796;51.458;7.000;2022-11-20T10:49:55;9.75;;;8.13;;
37973;SDS011;23796;51.458;7.000;2022-11-20T10:52:33;12.27;;;8.52;;
37973;SDS011;23796;51.458;7.000;2022-11-20T10:55:43;11.10;;;8.75;;
37973;SDS011;23796;51.458;7.000;2022-11-20T11:01:05;10.50;;;8.93;;
37973;SDS011;23796;51.458;7.000;2022-11-20T11:03:38;11.68;;;9.27;;
37973;SDS011;23796;51.458;7.000;2022-11-20T11:08:37;11.65;;;9.38;;
37973;SDS011;23796;51.458;7.000;2022-11-20T11:11:23;12.27;;;10.20;;
37973;SDS011;23796;51.458;7.000;2022-11-20T11:13:51;12.25;;;10.68;;
37973;SDS011;23796;51.458;7.000;2022-11-20T11:16:19;12.15;;;10.55;;
37973;SDS011;23796;51.458;7.000;2022-11-20T11:18:51;13.45;;;9.73;;
37973;SDS011;23796;51.458;7.000;2022-11-20T11:21:32;14.15;;;10.57;;
37973;SDS011;23796;51.458;7.000;2022-11-20T11:23:59;13.38;;;10.38;;
37973;SDS011;23796;51.458;7.000;2022-11-20T11:26:26;12.48;;;10.43;;
37973;SDS011;23796;51.458;7.000;2022-11-20T11:31:39;12.40;;;10.20;;
37973;SDS011;23796;51.458;7.000;2022-11-20T11:34:10;11.88;;;9.57;;
37973;SDS011;23796;51.458;7.000;2022-11-20T11:36:38;12.38;;;10.05;;
37973;SDS011;23796;51.458;7.000;2022-11-20T11:39:04;11.63;;;9.43;;
37973;SDS011;23796;51.458;7.000;2022-11-20T11:41:35;11.15;;;9.38;;
37973;SDS011;23796;51.458;7.000;2022-11-20T11:44:04;10.48;;;8.95;;
37973;SDS011;23796;51.458;7.000;2022-11-20T11:47:21;11.07;;;9.35;;
37973;SDS011;23796;51.458;7.000;2022-11-20T11:52:54;12.63;;;8.85;;
37973;SDS011;23796;51.458;7.000;2022-11-20T12:06:45;11.68;;;8.95;;
37973;SDS011;23796;51.458;7.000;2022-11-20T12:09:16;12.02;;;9.85;;
37973;SDS011;23796;51.458;7.000;2022-11-20T12:14:34;11.48;;;9.32;;
37973;SDS011;23796;51.458;7.000;2022-11-20T12:17:07;12.10;;;9.48;;
37973;SDS011;23796;51.458;7.000;2022-11-20T12:19:39;11.80;;;9.20;;
37973;SDS011;23796;51.458;7.000;2022-11-20T12:22:21;11.80;;;9.38;;
37973;SDS011;23796;51.458;7.000;2022-11-20T12:25:10;12.88;;;10.15;;
37973;SDS011;23796;51.458;7.000;2022-11-20T12:30:38;12.48;;;9.70;;
37973;SDS011;23796;51.458;7.000;2022-11-20T12:36:06;12.07;;;9.65;;
37973;SDS011;23796;51.458;7.000;2022-11-20T12:53:04;12.73;;;10.07;;
37973;SDS011;23796;51.458;7.000;2022-11-20T12:58:15;14.02;;;10.70;;
37973;SDS011;23796;51.458;7.000;2022-11-20T13:01:28;13.65;;;10.80;;
37973;SDS011;23796;51.458;7.000;2022-11-20T13:06:49;14.00;;;10.82;;
37973;SDS011;23796;51.458;7.000;2022-11-20T13:09:16;13.25;;;10.98;;
37973;SDS011;23796;51.458;7.000;2022-11-20T13:17:18;12.98;;;10.32;;
37973;SDS011;23796;51.458;7.000;2022-11-20T13:19:50;14.57;;;12.05;;
37973;SDS011;23796;51.458;7.000;2022-11-20T13:22:25;13.80;;;10.90;;
37973;SDS011;23796;51.458;7.000;2022-11-20T13:24:54;13.93;;;10.50;;
37973;SDS011;23796;51.458;7.000;2022-11-20T13:27:22;14.75;;;10.93;;
37973;SDS011;23796;51.458;7.000;2022-11-20T13:30:10;12.50;;;10.65;;
37973;SDS011;23796;51.458;7.000;2022-11-20T13:35:36;12.75;;;10.43;;
37973;SDS011;23796;51.458;7.000;2022-11-20T13:38:07;13.90;;;10.75;;
37973;SDS011;23796;51.458;7.000;2022-11-20T13:46:07;15.18;;;11.82;;
37973;SDS011;23796;51.458;7.000;2022-11-20T13:48:40;15.60;;;12.23;;
37973;SDS011;23796;51.458;7.000;2022-11-20T13:51:13;15.67;;;12.70;;
37973;SDS011;23796;51.458;7.000;2022-11-20T13:56:28;18.33;;;15.07;;
37973;SDS011;23796;51.458;7.000;2022-11-20T14:01:33;15.02;;;12.20;;
37973;SDS011;23796;51.458;7.000;2022-11-20T14:03:59;16.63;;;12.95;;
37973;SDS011;23796;51.458;7.000;2022-11-20T14:06:34;15.35;;;12.32;;
37973;SDS011;23796;51.458;7.000;2022-11-20T14:09:10;17.42;;;13.38;;
37973;SDS011;23796;51.458;7.000;2022-11-20T14:11:59;17.00;;;14.03;;
37973;SDS011;23796;51.458;7.000;2022-11-20T14:14:28;14.23;;;12.38;;
37973;SDS011;23796;51.458;7.000;2022-11-20T14:17:08;18.85;;;12.95;;
37973;SDS011;23796;51.458;7.000;2022-11-20T14:19:41;15.57;;;13.35;;
37973;SDS011;23796;51.458;7.000;2022-11-20T14:22:14;17.25;;;13.25;;
37973;SDS011;23796;51.458;7.000;2022-11-20T14:24:44;16.73;;;13.63;;
37973;SDS011;23796;51.458;7.000;2022-11-20T14:27:13;16.50;;;13.80;;
37973;SDS011;23796;51.458;7.000;2022-11-20T14:29:44;16.23;;;13.00;;
37973;SDS011;23796;51.458;7.000;2022-11-20T14:32:14;15.85;;;13.15;;
37973;SDS011;23796;51.458;7.000;2022-11-20T14:34:44;16.63;;;13.38;;
37973;SDS011;23796;51.458;7.000;2022-11-20T14:37:13;17.83;;;14.02;;
37973;SDS011;23796;51.458;7.000;2022-11-20T14:39:54;15.88;;;13.32;;
37973;SDS011;23796;51.458;7.000;2022-11-20T14:42:23;14.85;;;12.23;;
37973;SDS011;23796;51.458;7.000;2022-11-20T14:44:51;16.20;;;12.95;;
37973;SDS011;23796;51.458;7.000;2022-11-20T14:47:21;16.45;;;13.90;;
37973;SDS011;23796;51.458;7.000;2022-11-20T14:49:50;16.45;;;13.02;;
37973;SDS011;23796;51.458;7.000;2022-11-20T14:52:18;18.08;;;14.32;;
37973;SDS011;23796;51.458;7.000;2022-11-20T14:57:35;18.33;;;14.13;;
37973;SDS011;23796;51.458;7.000;2022-11-20T15:00:17;17.48;;;13.73;;
37973;SDS011;23796;51.458;7.000;2022-11-20T15:02:46;18.65;;;14.63;;
37973;SDS011;23796;51.458;7.000;2022-11-20T15:05:13;16.30;;;13.23;;
37973;SDS011;23796;51.458;7.000;2022-11-20T15:07:45;16.90;;;13.38;;
37973;SDS011;23796;51.458;7.000;2022-11-20T15:15:16;20.20;;;16.88;;
37973;SDS011;23796;51.458;7.000;2022-11-20T15:17:49;17.10;;;14.50;;
37973;SDS011;23796;51.458;7.000;2022-11-20T15:20:18;17.40;;;15.50;;
37973;SDS011;23796;51.458;7.000;2022-11-20T15:22:44;16.73;;;13.27;;
37973;SDS011;23796;51.458;7.000;2022-11-20T15:25:14;16.48;;;14.32;;
37973;SDS011;23796;51.458;7.000;2022-11-20T15:27:41;15.88;;;13.18;;
37973;SDS011;23796;51.458;7.000;2022-11-20T15:30:18;20.25;;;15.45;;
37973;SDS011;23796;51.458;7.000;2022-11-20T15:32:47;20.33;;;16.90;;
37973;SDS011;23796;51.458;7.000;2022-11-20T15:35:15;22.15;;;17.33;;
37973;SDS011;23796;51.458;7.000;2022-11-20T15:37:41;19.45;;;14.55;;
37973;SDS011;23796;51.458;7.000;2022-11-20T15:40:09;17.88;;;14.77;;
37973;SDS011;23796;51.458;7.000;2022-11-20T15:42:36;18.10;;;13.93;;
37973;SDS011;23796;51.458;7.000;2022-11-20T15:45:22;25.38;;;15.23;;
37973;SDS011;23796;51.458;7.000;2022-11-20T15:47:55;16.90;;;13.77;;
37973;SDS011;23796;51.458;7.000;2022-11-20T15:50:20;18.35;;;14.70;;
37973;SDS011;23796;51.458;7.000;2022-11-20T15:52:52;17.50;;;14.43;;
37973;SDS011;23796;51.458;7.000;2022-11-20T15:55:20;16.58;;;13.93;;
37973;SDS011;23796;51.458;7.000;2022-11-20T15:57:48;17.90;;;13.98;;
37973;SDS011;23796;51.458;7.000;2022-11-20T16:00:16;17.25;;;14.80;;
37973;SDS011;23796;51.458;7.000;2022-11-20T16:02:44;17.58;;;14.35;;
37973;SDS011;23796;51.458;7.000;2022-11-20T16:05:11;18.27;;;14.55;;
37973;SDS011;23796;51.458;7.000;2022-11-20T16:07:37;16.42;;;14.30;;
37973;SDS011;23796;51.458;7.000;2022-11-20T16:10:03;18.50;;;14.65;;
37973;SDS011;23796;51.458;7.000;2022-11-20T16:12:29;18.50;;;14.30;;
37973;SDS011;23796;51.458;7.000;2022-11-20T16:15:13;16.77;;;14.05;;
37973;SDS011;23796;51.458;7.000;2022-11-20T16:17:57;17.23;;;14.50;;
37973;SDS011;23796;51.458;7.000;2022-11-20T16:20:25;19.30;;;14.13;;
37973;SDS011;23796;51.458;7.000;2022-11-20T16:22:50;17.77;;;13.90;;
37973;SDS011;23796;51.458;7.000;2022-11-20T16:25:18;19.23;;;13.95;;
37973;SDS011;23796;51.458;7.000;2022-11-20T16:27:46;17.10;;;13.77;;
37973;SDS011;23796;51.458;7.000;2022-11-20T16:30:14;20.20;;;14.75;;
37973;SDS011;23796;51.458;7.000;2022-11-20T16:32:40;18.90;;;14.35;;
37973;SDS011;23796;51.458;7.000;2022-11-20T16:35:05;17.50;;;13.75;;